<?xml version="1.0" encoding="UTF-8" standalone="no" ?>
<gpx xmlns="http://www.topografix.com/GPX/1/1" xmlns:xsi="http://www.w3.org/2001/XMLSchema-instance" xsi:schemaLocation="http://www.topografix.com/GPX/1/1 http://www.topografix.com/GPX/1/1/gpx.xsd" version="1.1" creator="VisuGPX - https://www.visugpx.com">
  <metadata>
    <name>65 - RAQUETTES - Cauterets - Pont d Espagne circuit balisé.</name>
    <desc><![CDATA[1ère sortie de l année 2012]]></desc>
  </metadata>
  <trk>
    <name><![CDATA[ACTIVE LOG 006]]></name>
    <trkseg>
      <trkpt lat="42.85092" lon="-0.1373">
        <ele>1472.877197</ele>
        <time>2012-01-01T09:45:43Z</time>
      </trkpt>
      <trkpt lat="42.85146" lon="-0.13686">
        <ele>1473.35791</ele>
        <time>2012-01-01T09:45:47Z</time>
      </trkpt>
      <trkpt lat="42.85152" lon="-0.13688">
        <ele>1472.396484</ele>
        <time>2012-01-01T09:45:52Z</time>
      </trkpt>
      <trkpt lat="42.85153" lon="-0.13699">
        <ele>1473.35791</ele>
        <time>2012-01-01T09:45:59Z</time>
      </trkpt>
      <trkpt lat="42.85165" lon="-0.13723">
        <ele>1474.319092</ele>
        <time>2012-01-01T09:46:19Z</time>
      </trkpt>
      <trkpt lat="42.85164" lon="-0.13725">
        <ele>1474.319092</ele>
        <time>2012-01-01T09:46:32Z</time>
      </trkpt>
      <trkpt lat="42.85167" lon="-0.13719">
        <ele>1472.396484</ele>
        <time>2012-01-01T09:46:46Z</time>
      </trkpt>
      <trkpt lat="42.85167" lon="-0.13718">
        <ele>1475.760986</ele>
        <time>2012-01-01T09:46:49Z</time>
      </trkpt>
      <trkpt lat="42.85168" lon="-0.13719">
        <ele>1472.877197</ele>
        <time>2012-01-01T09:46:54Z</time>
      </trkpt>
      <trkpt lat="42.85172" lon="-0.13717">
        <ele>1472.877197</ele>
        <time>2012-01-01T09:47:28Z</time>
      </trkpt>
      <trkpt lat="42.85166" lon="-0.13709">
        <ele>1473.838379</ele>
        <time>2012-01-01T09:47:55Z</time>
      </trkpt>
      <trkpt lat="42.85171" lon="-0.13714">
        <ele>1473.838379</ele>
        <time>2012-01-01T09:48:24Z</time>
      </trkpt>
      <trkpt lat="42.8517" lon="-0.13717">
        <ele>1473.35791</ele>
        <time>2012-01-01T09:49:01Z</time>
      </trkpt>
      <trkpt lat="42.85173" lon="-0.13718">
        <ele>1473.35791</ele>
        <time>2012-01-01T09:49:30Z</time>
      </trkpt>
      <trkpt lat="42.85172" lon="-0.13719">
        <ele>1473.35791</ele>
        <time>2012-01-01T09:50:19Z</time>
      </trkpt>
      <trkpt lat="42.8517" lon="-0.13719">
        <ele>1474.799805</ele>
        <time>2012-01-01T09:50:48Z</time>
      </trkpt>
      <trkpt lat="42.85165" lon="-0.13724">
        <ele>1474.319092</ele>
        <time>2012-01-01T09:50:59Z</time>
      </trkpt>
      <trkpt lat="42.85158" lon="-0.13749">
        <ele>1474.799805</ele>
        <time>2012-01-01T09:51:17Z</time>
      </trkpt>
      <trkpt lat="42.8515" lon="-0.13759">
        <ele>1476.241699</ele>
        <time>2012-01-01T09:51:30Z</time>
      </trkpt>
      <trkpt lat="42.8514" lon="-0.13772">
        <ele>1477.203125</ele>
        <time>2012-01-01T09:51:44Z</time>
      </trkpt>
      <trkpt lat="42.85139" lon="-0.13775">
        <ele>1478.164307</ele>
        <time>2012-01-01T09:51:46Z</time>
      </trkpt>
      <trkpt lat="42.85139" lon="-0.13777">
        <ele>1477.203125</ele>
        <time>2012-01-01T09:51:48Z</time>
      </trkpt>
      <trkpt lat="42.85135" lon="-0.13801">
        <ele>1479.125488</ele>
        <time>2012-01-01T09:52:06Z</time>
      </trkpt>
      <trkpt lat="42.85129" lon="-0.13832">
        <ele>1482.009521</ele>
        <time>2012-01-01T09:52:28Z</time>
      </trkpt>
      <trkpt lat="42.85123" lon="-0.13843">
        <ele>1482.490234</ele>
        <time>2012-01-01T09:52:38Z</time>
      </trkpt>
      <trkpt lat="42.85112" lon="-0.13846">
        <ele>1483.932129</ele>
        <time>2012-01-01T09:52:49Z</time>
      </trkpt>
      <trkpt lat="42.85106" lon="-0.13839">
        <ele>1485.374268</ele>
        <time>2012-01-01T09:53:02Z</time>
      </trkpt>
      <trkpt lat="42.85104" lon="-0.13835">
        <ele>1485.374268</ele>
        <time>2012-01-01T09:53:05Z</time>
      </trkpt>
      <trkpt lat="42.85099" lon="-0.13809">
        <ele>1487.296875</ele>
        <time>2012-01-01T09:53:24Z</time>
      </trkpt>
      <trkpt lat="42.85081" lon="-0.13806">
        <ele>1490.180908</ele>
        <time>2012-01-01T09:53:43Z</time>
      </trkpt>
      <trkpt lat="42.85074" lon="-0.13823">
        <ele>1492.584229</ele>
        <time>2012-01-01T09:53:57Z</time>
      </trkpt>
      <trkpt lat="42.85074" lon="-0.13845">
        <ele>1494.026123</ele>
        <time>2012-01-01T09:54:12Z</time>
      </trkpt>
      <trkpt lat="42.85074" lon="-0.13854">
        <ele>1494.987305</ele>
        <time>2012-01-01T09:54:19Z</time>
      </trkpt>
      <trkpt lat="42.85073" lon="-0.13882">
        <ele>1497.390625</ele>
        <time>2012-01-01T09:54:39Z</time>
      </trkpt>
      <trkpt lat="42.85071" lon="-0.13902">
        <ele>1499.313232</ele>
        <time>2012-01-01T09:54:55Z</time>
      </trkpt>
      <trkpt lat="42.8508" lon="-0.13922">
        <ele>1500.755371</ele>
        <time>2012-01-01T09:55:12Z</time>
      </trkpt>
      <trkpt lat="42.85085" lon="-0.13944">
        <ele>1502.677979</ele>
        <time>2012-01-01T09:55:30Z</time>
      </trkpt>
      <trkpt lat="42.85085" lon="-0.13949">
        <ele>1503.158691</ele>
        <time>2012-01-01T09:55:33Z</time>
      </trkpt>
      <trkpt lat="42.85079" lon="-0.13974">
        <ele>1504.120117</ele>
        <time>2012-01-01T09:55:54Z</time>
      </trkpt>
      <trkpt lat="42.85077" lon="-0.13975">
        <ele>1505.081299</ele>
        <time>2012-01-01T09:56:22Z</time>
      </trkpt>
      <trkpt lat="42.85079" lon="-0.13977">
        <ele>1504.600586</ele>
        <time>2012-01-01T09:56:34Z</time>
      </trkpt>
      <trkpt lat="42.85092" lon="-0.13982">
        <ele>1505.081299</ele>
        <time>2012-01-01T09:56:51Z</time>
      </trkpt>
      <trkpt lat="42.85093" lon="-0.13984">
        <ele>1505.081299</ele>
        <time>2012-01-01T09:57:08Z</time>
      </trkpt>
      <trkpt lat="42.85101" lon="-0.13989">
        <ele>1506.04248</ele>
        <time>2012-01-01T09:57:17Z</time>
      </trkpt>
      <trkpt lat="42.85118" lon="-0.13976">
        <ele>1506.04248</ele>
        <time>2012-01-01T09:57:37Z</time>
      </trkpt>
      <trkpt lat="42.85127" lon="-0.13972">
        <ele>1508.445801</ele>
        <time>2012-01-01T09:57:50Z</time>
      </trkpt>
      <trkpt lat="42.85135" lon="-0.13973">
        <ele>1506.523193</ele>
        <time>2012-01-01T09:57:58Z</time>
      </trkpt>
      <trkpt lat="42.8514" lon="-0.13989">
        <ele>1507.003906</ele>
        <time>2012-01-01T09:58:11Z</time>
      </trkpt>
      <trkpt lat="42.85134" lon="-0.14009">
        <ele>1508.926514</ele>
        <time>2012-01-01T09:58:27Z</time>
      </trkpt>
      <trkpt lat="42.85127" lon="-0.14035">
        <ele>1511.329834</ele>
        <time>2012-01-01T09:58:48Z</time>
      </trkpt>
      <trkpt lat="42.85125" lon="-0.14055">
        <ele>1512.771729</ele>
        <time>2012-01-01T09:59:05Z</time>
      </trkpt>
      <trkpt lat="42.85125" lon="-0.14082">
        <ele>1514.694336</ele>
        <time>2012-01-01T09:59:25Z</time>
      </trkpt>
      <trkpt lat="42.8513" lon="-0.14104">
        <ele>1517.0979</ele>
        <time>2012-01-01T09:59:42Z</time>
      </trkpt>
      <trkpt lat="42.85132" lon="-0.14114">
        <ele>1518.059082</ele>
        <time>2012-01-01T09:59:50Z</time>
      </trkpt>
      <trkpt lat="42.85132" lon="-0.1412">
        <ele>1518.059082</ele>
        <time>2012-01-01T09:59:54Z</time>
      </trkpt>
      <trkpt lat="42.85139" lon="-0.14141">
        <ele>1520.943115</ele>
        <time>2012-01-01T10:00:12Z</time>
      </trkpt>
      <trkpt lat="42.85142" lon="-0.14148">
        <ele>1522.38501</ele>
        <time>2012-01-01T10:00:20Z</time>
      </trkpt>
      <trkpt lat="42.85163" lon="-0.1416">
        <ele>1525.268799</ele>
        <time>2012-01-01T10:00:39Z</time>
      </trkpt>
      <trkpt lat="42.85169" lon="-0.1417">
        <ele>1525.749512</ele>
        <time>2012-01-01T10:00:50Z</time>
      </trkpt>
      <trkpt lat="42.85173" lon="-0.14176">
        <ele>1526.230225</ele>
        <time>2012-01-01T10:00:57Z</time>
      </trkpt>
      <trkpt lat="42.85185" lon="-0.14192">
        <ele>1527.19165</ele>
        <time>2012-01-01T10:01:14Z</time>
      </trkpt>
      <trkpt lat="42.852" lon="-0.14207">
        <ele>1528.633545</ele>
        <time>2012-01-01T10:01:33Z</time>
      </trkpt>
      <trkpt lat="42.85211" lon="-0.14215">
        <ele>1529.114014</ele>
        <time>2012-01-01T10:01:44Z</time>
      </trkpt>
      <trkpt lat="42.85216" lon="-0.14229">
        <ele>1528.633545</ele>
        <time>2012-01-01T10:02:01Z</time>
      </trkpt>
      <trkpt lat="42.85217" lon="-0.14235">
        <ele>1528.152832</ele>
        <time>2012-01-01T10:02:23Z</time>
      </trkpt>
      <trkpt lat="42.85225" lon="-0.14246">
        <ele>1529.114014</ele>
        <time>2012-01-01T10:02:40Z</time>
      </trkpt>
      <trkpt lat="42.85232" lon="-0.14253">
        <ele>1529.594727</ele>
        <time>2012-01-01T10:02:51Z</time>
      </trkpt>
      <trkpt lat="42.85236" lon="-0.14254">
        <ele>1529.594727</ele>
        <time>2012-01-01T10:02:58Z</time>
      </trkpt>
      <trkpt lat="42.8525" lon="-0.14268">
        <ele>1530.075439</ele>
        <time>2012-01-01T10:03:14Z</time>
      </trkpt>
      <trkpt lat="42.8525" lon="-0.14273">
        <ele>1530.075439</ele>
        <time>2012-01-01T10:03:17Z</time>
      </trkpt>
      <trkpt lat="42.85254" lon="-0.14279">
        <ele>1530.075439</ele>
        <time>2012-01-01T10:03:23Z</time>
      </trkpt>
      <trkpt lat="42.85258" lon="-0.14307">
        <ele>1530.556152</ele>
        <time>2012-01-01T10:03:44Z</time>
      </trkpt>
      <trkpt lat="42.85259" lon="-0.14332">
        <ele>1531.036865</ele>
        <time>2012-01-01T10:04:02Z</time>
      </trkpt>
      <trkpt lat="42.8526" lon="-0.14358">
        <ele>1531.517334</ele>
        <time>2012-01-01T10:04:19Z</time>
      </trkpt>
      <trkpt lat="42.8526" lon="-0.14383">
        <ele>1531.036865</ele>
        <time>2012-01-01T10:04:36Z</time>
      </trkpt>
      <trkpt lat="42.85251" lon="-0.14406">
        <ele>1531.998047</ele>
        <time>2012-01-01T10:04:54Z</time>
      </trkpt>
      <trkpt lat="42.85242" lon="-0.14433">
        <ele>1531.036865</ele>
        <time>2012-01-01T10:05:15Z</time>
      </trkpt>
      <trkpt lat="42.85233" lon="-0.14454">
        <ele>1530.556152</ele>
        <time>2012-01-01T10:05:32Z</time>
      </trkpt>
      <trkpt lat="42.85227" lon="-0.14473">
        <ele>1529.114014</ele>
        <time>2012-01-01T10:05:48Z</time>
      </trkpt>
      <trkpt lat="42.85223" lon="-0.14484">
        <ele>1529.114014</ele>
        <time>2012-01-01T10:06:04Z</time>
      </trkpt>
      <trkpt lat="42.85218" lon="-0.14506">
        <ele>1529.114014</ele>
        <time>2012-01-01T10:06:24Z</time>
      </trkpt>
      <trkpt lat="42.85219" lon="-0.14507">
        <ele>1528.152832</ele>
        <time>2012-01-01T10:06:45Z</time>
      </trkpt>
      <trkpt lat="42.85216" lon="-0.1452">
        <ele>1527.672119</ele>
        <time>2012-01-01T10:08:00Z</time>
      </trkpt>
      <trkpt lat="42.85206" lon="-0.14546">
        <ele>1527.672119</ele>
        <time>2012-01-01T10:08:19Z</time>
      </trkpt>
      <trkpt lat="42.85195" lon="-0.14568">
        <ele>1526.710938</ele>
        <time>2012-01-01T10:08:37Z</time>
      </trkpt>
      <trkpt lat="42.85193" lon="-0.14574">
        <ele>1526.710938</ele>
        <time>2012-01-01T10:08:50Z</time>
      </trkpt>
      <trkpt lat="42.85192" lon="-0.14574">
        <ele>1528.152832</ele>
        <time>2012-01-01T10:09:07Z</time>
      </trkpt>
      <trkpt lat="42.85188" lon="-0.14584">
        <ele>1528.633545</ele>
        <time>2012-01-01T10:09:18Z</time>
      </trkpt>
      <trkpt lat="42.85177" lon="-0.14609">
        <ele>1529.114014</ele>
        <time>2012-01-01T10:09:38Z</time>
      </trkpt>
      <trkpt lat="42.85165" lon="-0.14636">
        <ele>1528.152832</ele>
        <time>2012-01-01T10:09:59Z</time>
      </trkpt>
      <trkpt lat="42.85153" lon="-0.14663">
        <ele>1530.075439</ele>
        <time>2012-01-01T10:10:20Z</time>
      </trkpt>
      <trkpt lat="42.8514" lon="-0.1469">
        <ele>1531.036865</ele>
        <time>2012-01-01T10:10:42Z</time>
      </trkpt>
      <trkpt lat="42.85133" lon="-0.14703">
        <ele>1530.075439</ele>
        <time>2012-01-01T10:10:55Z</time>
      </trkpt>
      <trkpt lat="42.85128" lon="-0.14712">
        <ele>1531.998047</ele>
        <time>2012-01-01T10:11:05Z</time>
      </trkpt>
      <trkpt lat="42.85121" lon="-0.1474">
        <ele>1530.556152</ele>
        <time>2012-01-01T10:11:25Z</time>
      </trkpt>
      <trkpt lat="42.85115" lon="-0.14763">
        <ele>1531.036865</ele>
        <time>2012-01-01T10:11:42Z</time>
      </trkpt>
      <trkpt lat="42.85108" lon="-0.14788">
        <ele>1531.036865</ele>
        <time>2012-01-01T10:12:01Z</time>
      </trkpt>
      <trkpt lat="42.851" lon="-0.14813">
        <ele>1532.479004</ele>
        <time>2012-01-01T10:12:21Z</time>
      </trkpt>
      <trkpt lat="42.85092" lon="-0.14835">
        <ele>1532.959473</ele>
        <time>2012-01-01T10:12:39Z</time>
      </trkpt>
      <trkpt lat="42.8509" lon="-0.1485">
        <ele>1532.959473</ele>
        <time>2012-01-01T10:12:50Z</time>
      </trkpt>
      <trkpt lat="42.85099" lon="-0.14872">
        <ele>1532.959473</ele>
        <time>2012-01-01T10:13:09Z</time>
      </trkpt>
      <trkpt lat="42.85114" lon="-0.14889">
        <ele>1533.920898</ele>
        <time>2012-01-01T10:13:28Z</time>
      </trkpt>
      <trkpt lat="42.8513" lon="-0.14904">
        <ele>1536.324219</ele>
        <time>2012-01-01T10:13:48Z</time>
      </trkpt>
      <trkpt lat="42.85136" lon="-0.14909">
        <ele>1538.246826</ele>
        <time>2012-01-01T10:13:56Z</time>
      </trkpt>
      <trkpt lat="42.85141" lon="-0.14915">
        <ele>1538.727539</ele>
        <time>2012-01-01T10:14:05Z</time>
      </trkpt>
      <trkpt lat="42.85157" lon="-0.14929">
        <ele>1541.130615</ele>
        <time>2012-01-01T10:14:25Z</time>
      </trkpt>
      <trkpt lat="42.85163" lon="-0.14938">
        <ele>1542.572754</ele>
        <time>2012-01-01T10:14:37Z</time>
      </trkpt>
      <trkpt lat="42.85165" lon="-0.1496">
        <ele>1544.97583</ele>
        <time>2012-01-01T10:14:56Z</time>
      </trkpt>
      <trkpt lat="42.85175" lon="-0.14972">
        <ele>1546.898438</ele>
        <time>2012-01-01T10:15:12Z</time>
      </trkpt>
      <trkpt lat="42.85185" lon="-0.14985">
        <ele>1549.782715</ele>
        <time>2012-01-01T10:15:30Z</time>
      </trkpt>
      <trkpt lat="42.8519" lon="-0.14995">
        <ele>1551.224609</ele>
        <time>2012-01-01T10:15:49Z</time>
      </trkpt>
      <trkpt lat="42.85195" lon="-0.15009">
        <ele>1552.666504</ele>
        <time>2012-01-01T10:16:05Z</time>
      </trkpt>
      <trkpt lat="42.85197" lon="-0.15031">
        <ele>1555.550537</ele>
        <time>2012-01-01T10:16:25Z</time>
      </trkpt>
      <trkpt lat="42.85203" lon="-0.1505">
        <ele>1556.992432</ele>
        <time>2012-01-01T10:16:43Z</time>
      </trkpt>
      <trkpt lat="42.8521" lon="-0.1507">
        <ele>1559.876221</ele>
        <time>2012-01-01T10:17:02Z</time>
      </trkpt>
      <trkpt lat="42.85218" lon="-0.15088">
        <ele>1561.799072</ele>
        <time>2012-01-01T10:17:20Z</time>
      </trkpt>
      <trkpt lat="42.85221" lon="-0.15095">
        <ele>1562.279541</ele>
        <time>2012-01-01T10:17:34Z</time>
      </trkpt>
      <trkpt lat="42.85214" lon="-0.15097">
        <ele>1563.240967</ele>
        <time>2012-01-01T10:17:54Z</time>
      </trkpt>
      <trkpt lat="42.852" lon="-0.15092">
        <ele>1565.644531</ele>
        <time>2012-01-01T10:18:13Z</time>
      </trkpt>
      <trkpt lat="42.85192" lon="-0.15099">
        <ele>1567.566895</ele>
        <time>2012-01-01T10:18:28Z</time>
      </trkpt>
      <trkpt lat="42.85191" lon="-0.15101">
        <ele>1567.566895</ele>
        <time>2012-01-01T10:18:45Z</time>
      </trkpt>
      <trkpt lat="42.85191" lon="-0.15105">
        <ele>1567.566895</ele>
        <time>2012-01-01T10:18:52Z</time>
      </trkpt>
      <trkpt lat="42.85184" lon="-0.15131">
        <ele>1567.086426</ele>
        <time>2012-01-01T10:19:11Z</time>
      </trkpt>
      <trkpt lat="42.8518" lon="-0.15149">
        <ele>1569.489746</ele>
        <time>2012-01-01T10:19:25Z</time>
      </trkpt>
      <trkpt lat="42.85176" lon="-0.1517">
        <ele>1569.970215</ele>
        <time>2012-01-01T10:19:42Z</time>
      </trkpt>
      <trkpt lat="42.85176" lon="-0.15187">
        <ele>1569.489746</ele>
        <time>2012-01-01T10:19:54Z</time>
      </trkpt>
      <trkpt lat="42.85175" lon="-0.15212">
        <ele>1570.450928</ele>
        <time>2012-01-01T10:20:12Z</time>
      </trkpt>
      <trkpt lat="42.85181" lon="-0.15234">
        <ele>1571.412109</ele>
        <time>2012-01-01T10:20:30Z</time>
      </trkpt>
      <trkpt lat="42.85182" lon="-0.15236">
        <ele>1571.412109</ele>
        <time>2012-01-01T10:20:32Z</time>
      </trkpt>
      <trkpt lat="42.85195" lon="-0.15245">
        <ele>1572.373535</ele>
        <time>2012-01-01T10:20:46Z</time>
      </trkpt>
      <trkpt lat="42.85206" lon="-0.15253">
        <ele>1572.373535</ele>
        <time>2012-01-01T10:20:59Z</time>
      </trkpt>
      <trkpt lat="42.85216" lon="-0.15274">
        <ele>1574.296143</ele>
        <time>2012-01-01T10:21:19Z</time>
      </trkpt>
      <trkpt lat="42.85207" lon="-0.15291">
        <ele>1575.738037</ele>
        <time>2012-01-01T10:21:35Z</time>
      </trkpt>
      <trkpt lat="42.85198" lon="-0.15313">
        <ele>1577.660645</ele>
        <time>2012-01-01T10:21:57Z</time>
      </trkpt>
      <trkpt lat="42.85185" lon="-0.15324">
        <ele>1579.102539</ele>
        <time>2012-01-01T10:22:16Z</time>
      </trkpt>
      <trkpt lat="42.85184" lon="-0.15324">
        <ele>1578.62207</ele>
        <time>2012-01-01T10:22:19Z</time>
      </trkpt>
      <trkpt lat="42.8517" lon="-0.1533">
        <ele>1579.583252</ele>
        <time>2012-01-01T10:22:37Z</time>
      </trkpt>
      <trkpt lat="42.85163" lon="-0.15349">
        <ele>1579.102539</ele>
        <time>2012-01-01T10:22:56Z</time>
      </trkpt>
      <trkpt lat="42.8516" lon="-0.15359">
        <ele>1577.660645</ele>
        <time>2012-01-01T10:23:11Z</time>
      </trkpt>
      <trkpt lat="42.85149" lon="-0.15381">
        <ele>1574.776855</ele>
        <time>2012-01-01T10:23:31Z</time>
      </trkpt>
      <trkpt lat="42.8513" lon="-0.154">
        <ele>1572.373535</ele>
        <time>2012-01-01T10:23:53Z</time>
      </trkpt>
      <trkpt lat="42.85118" lon="-0.1542">
        <ele>1570.450928</ele>
        <time>2012-01-01T10:24:12Z</time>
      </trkpt>
      <trkpt lat="42.85115" lon="-0.15447">
        <ele>1570.931641</ele>
        <time>2012-01-01T10:24:32Z</time>
      </trkpt>
      <trkpt lat="42.85116" lon="-0.1545">
        <ele>1570.450928</ele>
        <time>2012-01-01T10:24:34Z</time>
      </trkpt>
      <trkpt lat="42.85118" lon="-0.15465">
        <ele>1571.412109</ele>
        <time>2012-01-01T10:24:50Z</time>
      </trkpt>
      <trkpt lat="42.85121" lon="-0.15478">
        <ele>1571.412109</ele>
        <time>2012-01-01T10:25:08Z</time>
      </trkpt>
      <trkpt lat="42.8512" lon="-0.15492">
        <ele>1572.373535</ele>
        <time>2012-01-01T10:25:22Z</time>
      </trkpt>
      <trkpt lat="42.85107" lon="-0.15517">
        <ele>1572.373535</ele>
        <time>2012-01-01T10:25:43Z</time>
      </trkpt>
      <trkpt lat="42.85108" lon="-0.15529">
        <ele>1571.412109</ele>
        <time>2012-01-01T10:25:57Z</time>
      </trkpt>
      <trkpt lat="42.85109" lon="-0.15524">
        <ele>1570.931641</ele>
        <time>2012-01-01T10:26:19Z</time>
      </trkpt>
      <trkpt lat="42.85107" lon="-0.15519">
        <ele>1571.412109</ele>
        <time>2012-01-01T10:26:24Z</time>
      </trkpt>
      <trkpt lat="42.85105" lon="-0.15519">
        <ele>1572.373535</ele>
        <time>2012-01-01T10:26:26Z</time>
      </trkpt>
      <trkpt lat="42.851" lon="-0.15526">
        <ele>1572.854248</ele>
        <time>2012-01-01T10:26:32Z</time>
      </trkpt>
      <trkpt lat="42.85088" lon="-0.15545">
        <ele>1571.892822</ele>
        <time>2012-01-01T10:26:53Z</time>
      </trkpt>
      <trkpt lat="42.85088" lon="-0.15558">
        <ele>1572.373535</ele>
        <time>2012-01-01T10:27:11Z</time>
      </trkpt>
      <trkpt lat="42.85089" lon="-0.15563">
        <ele>1572.373535</ele>
        <time>2012-01-01T10:27:15Z</time>
      </trkpt>
      <trkpt lat="42.85093" lon="-0.15585">
        <ele>1573.334961</ele>
        <time>2012-01-01T10:27:28Z</time>
      </trkpt>
      <trkpt lat="42.85093" lon="-0.15588">
        <ele>1573.81543</ele>
        <time>2012-01-01T10:27:30Z</time>
      </trkpt>
      <trkpt lat="42.85097" lon="-0.15598">
        <ele>1574.296143</ele>
        <time>2012-01-01T10:27:39Z</time>
      </trkpt>
      <trkpt lat="42.85107" lon="-0.15626">
        <ele>1575.257324</ele>
        <time>2012-01-01T10:28:01Z</time>
      </trkpt>
      <trkpt lat="42.85111" lon="-0.15649">
        <ele>1575.738037</ele>
        <time>2012-01-01T10:28:19Z</time>
      </trkpt>
      <trkpt lat="42.85108" lon="-0.15675">
        <ele>1576.21875</ele>
        <time>2012-01-01T10:28:37Z</time>
      </trkpt>
      <trkpt lat="42.85107" lon="-0.157">
        <ele>1577.660645</ele>
        <time>2012-01-01T10:28:56Z</time>
      </trkpt>
      <trkpt lat="42.85109" lon="-0.15724">
        <ele>1579.102539</ele>
        <time>2012-01-01T10:29:16Z</time>
      </trkpt>
      <trkpt lat="42.85108" lon="-0.15738">
        <ele>1580.544922</ele>
        <time>2012-01-01T10:29:32Z</time>
      </trkpt>
      <trkpt lat="42.85102" lon="-0.15758">
        <ele>1582.467529</ele>
        <time>2012-01-01T10:29:49Z</time>
      </trkpt>
      <trkpt lat="42.851" lon="-0.15765">
        <ele>1582.947998</ele>
        <time>2012-01-01T10:29:54Z</time>
      </trkpt>
      <trkpt lat="42.8509" lon="-0.15788">
        <ele>1583.909424</ele>
        <time>2012-01-01T10:30:14Z</time>
      </trkpt>
      <trkpt lat="42.85089" lon="-0.1581">
        <ele>1583.909424</ele>
        <time>2012-01-01T10:30:32Z</time>
      </trkpt>
      <trkpt lat="42.85091" lon="-0.15819">
        <ele>1584.390137</ele>
        <time>2012-01-01T10:30:39Z</time>
      </trkpt>
      <trkpt lat="42.85099" lon="-0.15839">
        <ele>1584.87085</ele>
        <time>2012-01-01T10:30:58Z</time>
      </trkpt>
      <trkpt lat="42.85103" lon="-0.15844">
        <ele>1588.235352</ele>
        <time>2012-01-01T10:31:05Z</time>
      </trkpt>
      <trkpt lat="42.85099" lon="-0.15854">
        <ele>1591.599854</ele>
        <time>2012-01-01T10:31:20Z</time>
      </trkpt>
      <trkpt lat="42.85093" lon="-0.15864">
        <ele>1594.964355</ele>
        <time>2012-01-01T10:31:33Z</time>
      </trkpt>
      <trkpt lat="42.85083" lon="-0.15872">
        <ele>1595.445068</ele>
        <time>2012-01-01T10:31:51Z</time>
      </trkpt>
      <trkpt lat="42.8508" lon="-0.15885">
        <ele>1596.887207</ele>
        <time>2012-01-01T10:32:07Z</time>
      </trkpt>
      <trkpt lat="42.85075" lon="-0.15899">
        <ele>1598.809814</ele>
        <time>2012-01-01T10:32:21Z</time>
      </trkpt>
      <trkpt lat="42.85082" lon="-0.159">
        <ele>1599.77124</ele>
        <time>2012-01-01T10:32:36Z</time>
      </trkpt>
      <trkpt lat="42.85091" lon="-0.15891">
        <ele>1601.213135</ele>
        <time>2012-01-01T10:32:53Z</time>
      </trkpt>
      <trkpt lat="42.85105" lon="-0.15882">
        <ele>1604.097168</ele>
        <time>2012-01-01T10:33:11Z</time>
      </trkpt>
      <trkpt lat="42.85112" lon="-0.15887">
        <ele>1605.539062</ele>
        <time>2012-01-01T10:33:22Z</time>
      </trkpt>
      <trkpt lat="42.8512" lon="-0.15909">
        <ele>1606.500244</ele>
        <time>2012-01-01T10:33:42Z</time>
      </trkpt>
      <trkpt lat="42.85118" lon="-0.15929">
        <ele>1608.903564</ele>
        <time>2012-01-01T10:33:59Z</time>
      </trkpt>
      <trkpt lat="42.8511" lon="-0.15943">
        <ele>1610.826172</ele>
        <time>2012-01-01T10:34:12Z</time>
      </trkpt>
      <trkpt lat="42.85091" lon="-0.15964">
        <ele>1611.306885</ele>
        <time>2012-01-01T10:34:36Z</time>
      </trkpt>
      <trkpt lat="42.85073" lon="-0.15979">
        <ele>1609.864746</ele>
        <time>2012-01-01T10:34:58Z</time>
      </trkpt>
      <trkpt lat="42.8506" lon="-0.16005">
        <ele>1607.942383</ele>
        <time>2012-01-01T10:35:20Z</time>
      </trkpt>
      <trkpt lat="42.85058" lon="-0.16017">
        <ele>1607.942383</ele>
        <time>2012-01-01T10:35:37Z</time>
      </trkpt>
      <trkpt lat="42.8506" lon="-0.16022">
        <ele>1609.384277</ele>
        <time>2012-01-01T10:35:53Z</time>
      </trkpt>
      <trkpt lat="42.85058" lon="-0.16024">
        <ele>1609.384277</ele>
        <time>2012-01-01T10:36:15Z</time>
      </trkpt>
      <trkpt lat="42.85074" lon="-0.16015">
        <ele>1609.864746</ele>
        <time>2012-01-01T10:36:32Z</time>
      </trkpt>
      <trkpt lat="42.85077" lon="-0.16011">
        <ele>1608.903564</ele>
        <time>2012-01-01T10:36:36Z</time>
      </trkpt>
      <trkpt lat="42.85092" lon="-0.15994">
        <ele>1609.864746</ele>
        <time>2012-01-01T10:36:56Z</time>
      </trkpt>
      <trkpt lat="42.85097" lon="-0.15996">
        <ele>1608.903564</ele>
        <time>2012-01-01T10:37:01Z</time>
      </trkpt>
      <trkpt lat="42.85111" lon="-0.16017">
        <ele>1608.422852</ele>
        <time>2012-01-01T10:37:22Z</time>
      </trkpt>
      <trkpt lat="42.85113" lon="-0.16037">
        <ele>1608.422852</ele>
        <time>2012-01-01T10:37:38Z</time>
      </trkpt>
      <trkpt lat="42.85114" lon="-0.16056">
        <ele>1608.422852</ele>
        <time>2012-01-01T10:37:55Z</time>
      </trkpt>
      <trkpt lat="42.85113" lon="-0.16059">
        <ele>1608.903564</ele>
        <time>2012-01-01T10:37:59Z</time>
      </trkpt>
      <trkpt lat="42.85103" lon="-0.16075">
        <ele>1610.345459</ele>
        <time>2012-01-01T10:38:18Z</time>
      </trkpt>
      <trkpt lat="42.85098" lon="-0.1609">
        <ele>1610.345459</ele>
        <time>2012-01-01T10:39:02Z</time>
      </trkpt>
      <trkpt lat="42.85087" lon="-0.16115">
        <ele>1610.826172</ele>
        <time>2012-01-01T10:39:23Z</time>
      </trkpt>
      <trkpt lat="42.85081" lon="-0.16137">
        <ele>1612.749023</ele>
        <time>2012-01-01T10:39:40Z</time>
      </trkpt>
      <trkpt lat="42.8508" lon="-0.16138">
        <ele>1613.229736</ele>
        <time>2012-01-01T10:39:59Z</time>
      </trkpt>
      <trkpt lat="42.85079" lon="-0.1615">
        <ele>1614.190918</ele>
        <time>2012-01-01T10:40:10Z</time>
      </trkpt>
      <trkpt lat="42.85077" lon="-0.16174">
        <ele>1614.671631</ele>
        <time>2012-01-01T10:40:28Z</time>
      </trkpt>
      <trkpt lat="42.85069" lon="-0.16198">
        <ele>1615.152344</ele>
        <time>2012-01-01T10:40:48Z</time>
      </trkpt>
      <trkpt lat="42.85063" lon="-0.16212">
        <ele>1618.516846</ele>
        <time>2012-01-01T10:41:00Z</time>
      </trkpt>
      <trkpt lat="42.85061" lon="-0.16223">
        <ele>1618.997559</ele>
        <time>2012-01-01T10:41:13Z</time>
      </trkpt>
      <trkpt lat="42.85056" lon="-0.16239">
        <ele>1619.95874</ele>
        <time>2012-01-01T10:41:29Z</time>
      </trkpt>
      <trkpt lat="42.85051" lon="-0.16249">
        <ele>1621.881348</ele>
        <time>2012-01-01T10:41:40Z</time>
      </trkpt>
      <trkpt lat="42.85035" lon="-0.16254">
        <ele>1624.765381</ele>
        <time>2012-01-01T10:41:59Z</time>
      </trkpt>
      <trkpt lat="42.85033" lon="-0.16254">
        <ele>1625.24585</ele>
        <time>2012-01-01T10:42:02Z</time>
      </trkpt>
      <trkpt lat="42.85021" lon="-0.16257">
        <ele>1625.726562</ele>
        <time>2012-01-01T10:42:16Z</time>
      </trkpt>
      <trkpt lat="42.85001" lon="-0.16264">
        <ele>1627.168701</ele>
        <time>2012-01-01T10:42:36Z</time>
      </trkpt>
      <trkpt lat="42.84984" lon="-0.16272">
        <ele>1625.726562</ele>
        <time>2012-01-01T10:42:55Z</time>
      </trkpt>
      <trkpt lat="42.84969" lon="-0.16286">
        <ele>1624.765381</ele>
        <time>2012-01-01T10:43:14Z</time>
      </trkpt>
      <trkpt lat="42.84955" lon="-0.16308">
        <ele>1624.765381</ele>
        <time>2012-01-01T10:43:34Z</time>
      </trkpt>
      <trkpt lat="42.84951" lon="-0.16333">
        <ele>1624.284668</ele>
        <time>2012-01-01T10:43:53Z</time>
      </trkpt>
      <trkpt lat="42.84952" lon="-0.16353">
        <ele>1624.765381</ele>
        <time>2012-01-01T10:44:11Z</time>
      </trkpt>
      <trkpt lat="42.84951" lon="-0.16376">
        <ele>1623.803955</ele>
        <time>2012-01-01T10:44:29Z</time>
      </trkpt>
      <trkpt lat="42.8495" lon="-0.16386">
        <ele>1624.765381</ele>
        <time>2012-01-01T10:44:37Z</time>
      </trkpt>
      <trkpt lat="42.84943" lon="-0.16413">
        <ele>1624.765381</ele>
        <time>2012-01-01T10:44:58Z</time>
      </trkpt>
      <trkpt lat="42.8494" lon="-0.16417">
        <ele>1624.765381</ele>
        <time>2012-01-01T10:45:02Z</time>
      </trkpt>
      <trkpt lat="42.84925" lon="-0.16437">
        <ele>1624.765381</ele>
        <time>2012-01-01T10:45:22Z</time>
      </trkpt>
      <trkpt lat="42.84908" lon="-0.16462">
        <ele>1625.24585</ele>
        <time>2012-01-01T10:45:45Z</time>
      </trkpt>
      <trkpt lat="42.84889" lon="-0.1647">
        <ele>1624.765381</ele>
        <time>2012-01-01T10:46:04Z</time>
      </trkpt>
      <trkpt lat="42.84873" lon="-0.16482">
        <ele>1627.168701</ele>
        <time>2012-01-01T10:46:23Z</time>
      </trkpt>
      <trkpt lat="42.8486" lon="-0.1649">
        <ele>1626.687988</ele>
        <time>2012-01-01T10:46:43Z</time>
      </trkpt>
      <trkpt lat="42.84844" lon="-0.16502">
        <ele>1625.726562</ele>
        <time>2012-01-01T10:47:01Z</time>
      </trkpt>
      <trkpt lat="42.84825" lon="-0.16511">
        <ele>1624.765381</ele>
        <time>2012-01-01T10:47:21Z</time>
      </trkpt>
      <trkpt lat="42.84805" lon="-0.16514">
        <ele>1624.765381</ele>
        <time>2012-01-01T10:47:40Z</time>
      </trkpt>
      <trkpt lat="42.84786" lon="-0.1652">
        <ele>1625.726562</ele>
        <time>2012-01-01T10:47:59Z</time>
      </trkpt>
      <trkpt lat="42.84782" lon="-0.16522">
        <ele>1626.207275</ele>
        <time>2012-01-01T10:48:04Z</time>
      </trkpt>
      <trkpt lat="42.84761" lon="-0.16539">
        <ele>1624.765381</ele>
        <time>2012-01-01T10:48:27Z</time>
      </trkpt>
      <trkpt lat="42.84743" lon="-0.16553">
        <ele>1624.284668</ele>
        <time>2012-01-01T10:48:47Z</time>
      </trkpt>
      <trkpt lat="42.84738" lon="-0.16574">
        <ele>1626.687988</ele>
        <time>2012-01-01T10:49:04Z</time>
      </trkpt>
      <trkpt lat="42.84726" lon="-0.1659">
        <ele>1627.168701</ele>
        <time>2012-01-01T10:49:21Z</time>
      </trkpt>
      <trkpt lat="42.84725" lon="-0.16591">
        <ele>1627.64917</ele>
        <time>2012-01-01T10:49:22Z</time>
      </trkpt>
      <trkpt lat="42.84723" lon="-0.1659">
        <ele>1627.64917</ele>
        <time>2012-01-01T10:49:28Z</time>
      </trkpt>
      <trkpt lat="42.8471" lon="-0.16604">
        <ele>1626.687988</ele>
        <time>2012-01-01T10:49:46Z</time>
      </trkpt>
      <trkpt lat="42.84706" lon="-0.16616">
        <ele>1626.687988</ele>
        <time>2012-01-01T10:50:00Z</time>
      </trkpt>
      <trkpt lat="42.84688" lon="-0.16634">
        <ele>1625.726562</ele>
        <time>2012-01-01T10:50:21Z</time>
      </trkpt>
      <trkpt lat="42.84665" lon="-0.16638">
        <ele>1626.207275</ele>
        <time>2012-01-01T10:50:41Z</time>
      </trkpt>
      <trkpt lat="42.8465" lon="-0.1663">
        <ele>1626.687988</ele>
        <time>2012-01-01T10:50:56Z</time>
      </trkpt>
      <trkpt lat="42.84632" lon="-0.16627">
        <ele>1626.207275</ele>
        <time>2012-01-01T10:51:15Z</time>
      </trkpt>
      <trkpt lat="42.84622" lon="-0.16637">
        <ele>1629.091309</ele>
        <time>2012-01-01T10:51:33Z</time>
      </trkpt>
      <trkpt lat="42.84613" lon="-0.16642">
        <ele>1626.207275</ele>
        <time>2012-01-01T10:51:50Z</time>
      </trkpt>
      <trkpt lat="42.84604" lon="-0.16648">
        <ele>1625.726562</ele>
        <time>2012-01-01T10:52:06Z</time>
      </trkpt>
      <trkpt lat="42.8459" lon="-0.16663">
        <ele>1626.207275</ele>
        <time>2012-01-01T10:52:23Z</time>
      </trkpt>
      <trkpt lat="42.84575" lon="-0.1668">
        <ele>1627.168701</ele>
        <time>2012-01-01T10:52:42Z</time>
      </trkpt>
      <trkpt lat="42.84556" lon="-0.1669">
        <ele>1628.61084</ele>
        <time>2012-01-01T10:53:01Z</time>
      </trkpt>
      <trkpt lat="42.84536" lon="-0.16701">
        <ele>1628.130127</ele>
        <time>2012-01-01T10:53:22Z</time>
      </trkpt>
      <trkpt lat="42.84523" lon="-0.16714">
        <ele>1628.130127</ele>
        <time>2012-01-01T10:53:38Z</time>
      </trkpt>
      <trkpt lat="42.84523" lon="-0.16715">
        <ele>1628.130127</ele>
        <time>2012-01-01T10:53:39Z</time>
      </trkpt>
      <trkpt lat="42.84504" lon="-0.16723">
        <ele>1628.130127</ele>
        <time>2012-01-01T10:53:58Z</time>
      </trkpt>
      <trkpt lat="42.84497" lon="-0.1673">
        <ele>1627.168701</ele>
        <time>2012-01-01T10:54:17Z</time>
      </trkpt>
      <trkpt lat="42.84491" lon="-0.16741">
        <ele>1628.130127</ele>
        <time>2012-01-01T10:54:33Z</time>
      </trkpt>
      <trkpt lat="42.84491" lon="-0.16742">
        <ele>1626.687988</ele>
        <time>2012-01-01T10:55:15Z</time>
      </trkpt>
      <trkpt lat="42.8449" lon="-0.16742">
        <ele>1626.687988</ele>
        <time>2012-01-01T10:56:01Z</time>
      </trkpt>
      <trkpt lat="42.84489" lon="-0.16745">
        <ele>1626.207275</ele>
        <time>2012-01-01T10:56:32Z</time>
      </trkpt>
      <trkpt lat="42.8448" lon="-0.16758">
        <ele>1627.168701</ele>
        <time>2012-01-01T10:56:49Z</time>
      </trkpt>
      <trkpt lat="42.84466" lon="-0.16774">
        <ele>1627.64917</ele>
        <time>2012-01-01T10:57:08Z</time>
      </trkpt>
      <trkpt lat="42.84449" lon="-0.16785">
        <ele>1627.64917</ele>
        <time>2012-01-01T10:57:28Z</time>
      </trkpt>
      <trkpt lat="42.84429" lon="-0.16789">
        <ele>1628.61084</ele>
        <time>2012-01-01T10:57:49Z</time>
      </trkpt>
      <trkpt lat="42.8441" lon="-0.16798">
        <ele>1627.64917</ele>
        <time>2012-01-01T10:58:09Z</time>
      </trkpt>
      <trkpt lat="42.84387" lon="-0.16806">
        <ele>1628.61084</ele>
        <time>2012-01-01T10:58:33Z</time>
      </trkpt>
      <trkpt lat="42.84378" lon="-0.1681">
        <ele>1627.168701</ele>
        <time>2012-01-01T10:58:47Z</time>
      </trkpt>
      <trkpt lat="42.84372" lon="-0.16814">
        <ele>1628.61084</ele>
        <time>2012-01-01T10:58:54Z</time>
      </trkpt>
      <trkpt lat="42.84361" lon="-0.16821">
        <ele>1629.091309</ele>
        <time>2012-01-01T10:59:09Z</time>
      </trkpt>
      <trkpt lat="42.84353" lon="-0.1682">
        <ele>1629.091309</ele>
        <time>2012-01-01T10:59:26Z</time>
      </trkpt>
      <trkpt lat="42.8435" lon="-0.16818">
        <ele>1630.052734</ele>
        <time>2012-01-01T10:59:29Z</time>
      </trkpt>
      <trkpt lat="42.84332" lon="-0.16805">
        <ele>1629.572021</ele>
        <time>2012-01-01T10:59:50Z</time>
      </trkpt>
      <trkpt lat="42.84316" lon="-0.16794">
        <ele>1630.052734</ele>
        <time>2012-01-01T11:00:09Z</time>
      </trkpt>
      <trkpt lat="42.843" lon="-0.16782">
        <ele>1631.01416</ele>
        <time>2012-01-01T11:00:28Z</time>
      </trkpt>
      <trkpt lat="42.84279" lon="-0.16785">
        <ele>1631.01416</ele>
        <time>2012-01-01T11:00:48Z</time>
      </trkpt>
      <trkpt lat="42.84259" lon="-0.16787">
        <ele>1631.975342</ele>
        <time>2012-01-01T11:01:08Z</time>
      </trkpt>
      <trkpt lat="42.8426" lon="-0.16788">
        <ele>1631.494629</ele>
        <time>2012-01-01T11:01:27Z</time>
      </trkpt>
      <trkpt lat="42.84258" lon="-0.16788">
        <ele>1631.494629</ele>
        <time>2012-01-01T11:01:51Z</time>
      </trkpt>
      <trkpt lat="42.84241" lon="-0.16789">
        <ele>1631.01416</ele>
        <time>2012-01-01T11:02:08Z</time>
      </trkpt>
      <trkpt lat="42.84225" lon="-0.16802">
        <ele>1631.975342</ele>
        <time>2012-01-01T11:02:26Z</time>
      </trkpt>
      <trkpt lat="42.84209" lon="-0.16817">
        <ele>1631.975342</ele>
        <time>2012-01-01T11:02:46Z</time>
      </trkpt>
      <trkpt lat="42.84192" lon="-0.16831">
        <ele>1632.936523</ele>
        <time>2012-01-01T11:03:06Z</time>
      </trkpt>
      <trkpt lat="42.84174" lon="-0.16844">
        <ele>1631.494629</ele>
        <time>2012-01-01T11:03:26Z</time>
      </trkpt>
      <trkpt lat="42.84156" lon="-0.16857">
        <ele>1631.494629</ele>
        <time>2012-01-01T11:03:46Z</time>
      </trkpt>
      <trkpt lat="42.84144" lon="-0.16867">
        <ele>1631.975342</ele>
        <time>2012-01-01T11:03:59Z</time>
      </trkpt>
      <trkpt lat="42.84133" lon="-0.16881">
        <ele>1631.01416</ele>
        <time>2012-01-01T11:04:14Z</time>
      </trkpt>
      <trkpt lat="42.84115" lon="-0.16889">
        <ele>1632.456055</ele>
        <time>2012-01-01T11:04:32Z</time>
      </trkpt>
      <trkpt lat="42.84102" lon="-0.16911">
        <ele>1633.897949</ele>
        <time>2012-01-01T11:04:53Z</time>
      </trkpt>
      <trkpt lat="42.84084" lon="-0.16924">
        <ele>1635.820557</ele>
        <time>2012-01-01T11:05:14Z</time>
      </trkpt>
      <trkpt lat="42.84069" lon="-0.16936">
        <ele>1635.820557</ele>
        <time>2012-01-01T11:05:31Z</time>
      </trkpt>
      <trkpt lat="42.84054" lon="-0.16954">
        <ele>1635.339844</ele>
        <time>2012-01-01T11:05:50Z</time>
      </trkpt>
      <trkpt lat="42.84043" lon="-0.16968">
        <ele>1637.262451</ele>
        <time>2012-01-01T11:06:08Z</time>
      </trkpt>
      <trkpt lat="42.84032" lon="-0.1698">
        <ele>1638.223877</ele>
        <time>2012-01-01T11:06:24Z</time>
      </trkpt>
      <trkpt lat="42.84017" lon="-0.16992">
        <ele>1639.665771</ele>
        <time>2012-01-01T11:06:41Z</time>
      </trkpt>
      <trkpt lat="42.84009" lon="-0.16995">
        <ele>1639.665771</ele>
        <time>2012-01-01T11:06:57Z</time>
      </trkpt>
      <trkpt lat="42.84006" lon="-0.16993">
        <ele>1640.146484</ele>
        <time>2012-01-01T11:07:11Z</time>
      </trkpt>
      <trkpt lat="42.84002" lon="-0.16991">
        <ele>1638.70459</ele>
        <time>2012-01-01T11:07:25Z</time>
      </trkpt>
      <trkpt lat="42.83999" lon="-0.16986">
        <ele>1640.146484</ele>
        <time>2012-01-01T11:07:31Z</time>
      </trkpt>
      <trkpt lat="42.84002" lon="-0.16968">
        <ele>1638.70459</ele>
        <time>2012-01-01T11:07:50Z</time>
      </trkpt>
      <trkpt lat="42.84005" lon="-0.1696">
        <ele>1638.223877</ele>
        <time>2012-01-01T11:07:57Z</time>
      </trkpt>
      <trkpt lat="42.84018" lon="-0.16934">
        <ele>1636.30127</ele>
        <time>2012-01-01T11:08:19Z</time>
      </trkpt>
      <trkpt lat="42.8403" lon="-0.16909">
        <ele>1635.820557</ele>
        <time>2012-01-01T11:08:40Z</time>
      </trkpt>
      <trkpt lat="42.84032" lon="-0.16903">
        <ele>1635.339844</ele>
        <time>2012-01-01T11:08:57Z</time>
      </trkpt>
      <trkpt lat="42.84034" lon="-0.16897">
        <ele>1635.339844</ele>
        <time>2012-01-01T11:09:13Z</time>
      </trkpt>
      <trkpt lat="42.84036" lon="-0.16894">
        <ele>1635.339844</ele>
        <time>2012-01-01T11:09:31Z</time>
      </trkpt>
      <trkpt lat="42.84042" lon="-0.16879">
        <ele>1635.339844</ele>
        <time>2012-01-01T11:09:48Z</time>
      </trkpt>
      <trkpt lat="42.84046" lon="-0.16871">
        <ele>1635.339844</ele>
        <time>2012-01-01T11:09:56Z</time>
      </trkpt>
      <trkpt lat="42.8406" lon="-0.16849">
        <ele>1635.339844</ele>
        <time>2012-01-01T11:10:15Z</time>
      </trkpt>
      <trkpt lat="42.84073" lon="-0.16821">
        <ele>1634.859375</ele>
        <time>2012-01-01T11:10:36Z</time>
      </trkpt>
      <trkpt lat="42.84084" lon="-0.16797">
        <ele>1634.859375</ele>
        <time>2012-01-01T11:10:54Z</time>
      </trkpt>
      <trkpt lat="42.841" lon="-0.1677">
        <ele>1633.417236</ele>
        <time>2012-01-01T11:11:16Z</time>
      </trkpt>
      <trkpt lat="42.84112" lon="-0.1675">
        <ele>1632.456055</ele>
        <time>2012-01-01T11:11:34Z</time>
      </trkpt>
      <trkpt lat="42.84127" lon="-0.16722">
        <ele>1631.975342</ele>
        <time>2012-01-01T11:11:57Z</time>
      </trkpt>
      <trkpt lat="42.84148" lon="-0.16704">
        <ele>1631.01416</ele>
        <time>2012-01-01T11:12:20Z</time>
      </trkpt>
      <trkpt lat="42.84167" lon="-0.16687">
        <ele>1632.456055</ele>
        <time>2012-01-01T11:12:41Z</time>
      </trkpt>
      <trkpt lat="42.84173" lon="-0.16671">
        <ele>1632.936523</ele>
        <time>2012-01-01T11:12:53Z</time>
      </trkpt>
      <trkpt lat="42.84184" lon="-0.1665">
        <ele>1632.936523</ele>
        <time>2012-01-01T11:13:11Z</time>
      </trkpt>
      <trkpt lat="42.8419" lon="-0.16639">
        <ele>1631.01416</ele>
        <time>2012-01-01T11:13:20Z</time>
      </trkpt>
      <trkpt lat="42.84209" lon="-0.16613">
        <ele>1631.494629</ele>
        <time>2012-01-01T11:13:44Z</time>
      </trkpt>
      <trkpt lat="42.84223" lon="-0.16589">
        <ele>1630.533447</ele>
        <time>2012-01-01T11:14:04Z</time>
      </trkpt>
      <trkpt lat="42.84233" lon="-0.16582">
        <ele>1631.01416</ele>
        <time>2012-01-01T11:14:13Z</time>
      </trkpt>
      <trkpt lat="42.8425" lon="-0.16576">
        <ele>1631.494629</ele>
        <time>2012-01-01T11:14:29Z</time>
      </trkpt>
      <trkpt lat="42.84274" lon="-0.16566">
        <ele>1630.533447</ele>
        <time>2012-01-01T11:14:50Z</time>
      </trkpt>
      <trkpt lat="42.84294" lon="-0.16569">
        <ele>1630.052734</ele>
        <time>2012-01-01T11:15:09Z</time>
      </trkpt>
      <trkpt lat="42.84317" lon="-0.16571">
        <ele>1630.052734</ele>
        <time>2012-01-01T11:15:30Z</time>
      </trkpt>
      <trkpt lat="42.84341" lon="-0.16574">
        <ele>1629.091309</ele>
        <time>2012-01-01T11:15:52Z</time>
      </trkpt>
      <trkpt lat="42.84368" lon="-0.16579">
        <ele>1629.091309</ele>
        <time>2012-01-01T11:16:15Z</time>
      </trkpt>
      <trkpt lat="42.8439" lon="-0.16596">
        <ele>1629.572021</ele>
        <time>2012-01-01T11:16:37Z</time>
      </trkpt>
      <trkpt lat="42.84409" lon="-0.16605">
        <ele>1629.572021</ele>
        <time>2012-01-01T11:16:57Z</time>
      </trkpt>
      <trkpt lat="42.8443" lon="-0.16605">
        <ele>1628.61084</ele>
        <time>2012-01-01T11:17:17Z</time>
      </trkpt>
      <trkpt lat="42.84434" lon="-0.16602">
        <ele>1628.61084</ele>
        <time>2012-01-01T11:17:28Z</time>
      </trkpt>
      <trkpt lat="42.8445" lon="-0.16581">
        <ele>1628.61084</ele>
        <time>2012-01-01T11:17:48Z</time>
      </trkpt>
      <trkpt lat="42.84458" lon="-0.16574">
        <ele>1629.572021</ele>
        <time>2012-01-01T11:17:57Z</time>
      </trkpt>
      <trkpt lat="42.84465" lon="-0.16577">
        <ele>1630.052734</ele>
        <time>2012-01-01T11:18:14Z</time>
      </trkpt>
      <trkpt lat="42.84465" lon="-0.16578">
        <ele>1629.091309</ele>
        <time>2012-01-01T11:18:26Z</time>
      </trkpt>
      <trkpt lat="42.84461" lon="-0.16574">
        <ele>1630.533447</ele>
        <time>2012-01-01T11:19:42Z</time>
      </trkpt>
      <trkpt lat="42.8446" lon="-0.16574">
        <ele>1630.052734</ele>
        <time>2012-01-01T11:20:17Z</time>
      </trkpt>
      <trkpt lat="42.84461" lon="-0.16574">
        <ele>1629.091309</ele>
        <time>2012-01-01T11:20:32Z</time>
      </trkpt>
      <trkpt lat="42.84465" lon="-0.16575">
        <ele>1630.533447</ele>
        <time>2012-01-01T11:23:05Z</time>
      </trkpt>
      <trkpt lat="42.84468" lon="-0.1658">
        <ele>1630.533447</ele>
        <time>2012-01-01T11:52:27Z</time>
      </trkpt>
      <trkpt lat="42.84465" lon="-0.1658">
        <ele>1631.01416</ele>
        <time>2012-01-01T11:53:26Z</time>
      </trkpt>
      <trkpt lat="42.84466" lon="-0.16573">
        <ele>1630.533447</ele>
        <time>2012-01-01T11:54:04Z</time>
      </trkpt>
      <trkpt lat="42.84471" lon="-0.16572">
        <ele>1630.052734</ele>
        <time>2012-01-01T11:54:08Z</time>
      </trkpt>
      <trkpt lat="42.84493" lon="-0.16566">
        <ele>1628.61084</ele>
        <time>2012-01-01T11:54:25Z</time>
      </trkpt>
      <trkpt lat="42.84501" lon="-0.16559">
        <ele>1629.572021</ele>
        <time>2012-01-01T11:54:32Z</time>
      </trkpt>
      <trkpt lat="42.8451" lon="-0.16556">
        <ele>1629.091309</ele>
        <time>2012-01-01T11:54:38Z</time>
      </trkpt>
      <trkpt lat="42.84538" lon="-0.16546">
        <ele>1628.61084</ele>
        <time>2012-01-01T11:54:58Z</time>
      </trkpt>
      <trkpt lat="42.84562" lon="-0.16541">
        <ele>1628.61084</ele>
        <time>2012-01-01T11:55:14Z</time>
      </trkpt>
      <trkpt lat="42.84587" lon="-0.16546">
        <ele>1627.64917</ele>
        <time>2012-01-01T11:55:34Z</time>
      </trkpt>
      <trkpt lat="42.84613" lon="-0.1655">
        <ele>1627.64917</ele>
        <time>2012-01-01T11:55:53Z</time>
      </trkpt>
      <trkpt lat="42.84641" lon="-0.16526">
        <ele>1627.168701</ele>
        <time>2012-01-01T11:56:16Z</time>
      </trkpt>
      <trkpt lat="42.84667" lon="-0.16496">
        <ele>1626.207275</ele>
        <time>2012-01-01T11:56:39Z</time>
      </trkpt>
      <trkpt lat="42.84674" lon="-0.16487">
        <ele>1626.687988</ele>
        <time>2012-01-01T11:56:46Z</time>
      </trkpt>
      <trkpt lat="42.84677" lon="-0.16479">
        <ele>1627.168701</ele>
        <time>2012-01-01T11:56:50Z</time>
      </trkpt>
      <trkpt lat="42.84699" lon="-0.16456">
        <ele>1626.687988</ele>
        <time>2012-01-01T11:57:09Z</time>
      </trkpt>
      <trkpt lat="42.84724" lon="-0.16425">
        <ele>1626.207275</ele>
        <time>2012-01-01T11:57:33Z</time>
      </trkpt>
      <trkpt lat="42.84747" lon="-0.16409">
        <ele>1625.726562</ele>
        <time>2012-01-01T11:57:52Z</time>
      </trkpt>
      <trkpt lat="42.8477" lon="-0.16393">
        <ele>1625.726562</ele>
        <time>2012-01-01T11:58:10Z</time>
      </trkpt>
      <trkpt lat="42.84794" lon="-0.16377">
        <ele>1624.765381</ele>
        <time>2012-01-01T11:58:29Z</time>
      </trkpt>
      <trkpt lat="42.84816" lon="-0.16359">
        <ele>1625.726562</ele>
        <time>2012-01-01T11:58:47Z</time>
      </trkpt>
      <trkpt lat="42.84841" lon="-0.16336">
        <ele>1625.24585</ele>
        <time>2012-01-01T11:59:08Z</time>
      </trkpt>
      <trkpt lat="42.84847" lon="-0.16331">
        <ele>1626.207275</ele>
        <time>2012-01-01T11:59:15Z</time>
      </trkpt>
      <trkpt lat="42.84831" lon="-0.16322">
        <ele>1624.765381</ele>
        <time>2012-01-01T11:59:28Z</time>
      </trkpt>
      <trkpt lat="42.84828" lon="-0.16313">
        <ele>1624.765381</ele>
        <time>2012-01-01T11:59:33Z</time>
      </trkpt>
      <trkpt lat="42.84815" lon="-0.16277">
        <ele>1622.362061</ele>
        <time>2012-01-01T11:59:54Z</time>
      </trkpt>
      <trkpt lat="42.84808" lon="-0.1625">
        <ele>1621.400635</ele>
        <time>2012-01-01T12:00:13Z</time>
      </trkpt>
      <trkpt lat="42.84814" lon="-0.1623">
        <ele>1619.478271</ele>
        <time>2012-01-01T12:00:30Z</time>
      </trkpt>
      <trkpt lat="42.84829" lon="-0.16217">
        <ele>1618.036133</ele>
        <time>2012-01-01T12:00:45Z</time>
      </trkpt>
      <trkpt lat="42.84831" lon="-0.16189">
        <ele>1618.036133</ele>
        <time>2012-01-01T12:01:00Z</time>
      </trkpt>
      <trkpt lat="42.8483" lon="-0.16161">
        <ele>1618.997559</ele>
        <time>2012-01-01T12:01:18Z</time>
      </trkpt>
      <trkpt lat="42.84836" lon="-0.16156">
        <ele>1621.400635</ele>
        <time>2012-01-01T12:01:29Z</time>
      </trkpt>
      <trkpt lat="42.84841" lon="-0.16152">
        <ele>1621.881348</ele>
        <time>2012-01-01T12:01:35Z</time>
      </trkpt>
      <trkpt lat="42.8485" lon="-0.16146">
        <ele>1624.765381</ele>
        <time>2012-01-01T12:01:48Z</time>
      </trkpt>
      <trkpt lat="42.84854" lon="-0.16136">
        <ele>1626.207275</ele>
        <time>2012-01-01T12:02:00Z</time>
      </trkpt>
      <trkpt lat="42.84852" lon="-0.16133">
        <ele>1626.687988</ele>
        <time>2012-01-01T12:02:03Z</time>
      </trkpt>
      <trkpt lat="42.84847" lon="-0.16114">
        <ele>1626.687988</ele>
        <time>2012-01-01T12:02:13Z</time>
      </trkpt>
      <trkpt lat="42.84844" lon="-0.16109">
        <ele>1626.687988</ele>
        <time>2012-01-01T12:02:17Z</time>
      </trkpt>
      <trkpt lat="42.84834" lon="-0.16096">
        <ele>1624.765381</ele>
        <time>2012-01-01T12:02:33Z</time>
      </trkpt>
      <trkpt lat="42.84835" lon="-0.16086">
        <ele>1622.362061</ele>
        <time>2012-01-01T12:02:45Z</time>
      </trkpt>
      <trkpt lat="42.84836" lon="-0.16085">
        <ele>1622.362061</ele>
        <time>2012-01-01T12:02:47Z</time>
      </trkpt>
      <trkpt lat="42.84864" lon="-0.16083">
        <ele>1620.439453</ele>
        <time>2012-01-01T12:03:10Z</time>
      </trkpt>
      <trkpt lat="42.84875" lon="-0.16075">
        <ele>1619.95874</ele>
        <time>2012-01-01T12:03:21Z</time>
      </trkpt>
      <trkpt lat="42.84887" lon="-0.16053">
        <ele>1619.95874</ele>
        <time>2012-01-01T12:03:39Z</time>
      </trkpt>
      <trkpt lat="42.84889" lon="-0.16051">
        <ele>1619.95874</ele>
        <time>2012-01-01T12:03:41Z</time>
      </trkpt>
      <trkpt lat="42.84895" lon="-0.16047">
        <ele>1620.439453</ele>
        <time>2012-01-01T12:03:46Z</time>
      </trkpt>
      <trkpt lat="42.84914" lon="-0.16036">
        <ele>1620.439453</ele>
        <time>2012-01-01T12:04:02Z</time>
      </trkpt>
      <trkpt lat="42.84918" lon="-0.16029">
        <ele>1620.439453</ele>
        <time>2012-01-01T12:04:07Z</time>
      </trkpt>
      <trkpt lat="42.84922" lon="-0.16025">
        <ele>1620.439453</ele>
        <time>2012-01-01T12:04:11Z</time>
      </trkpt>
      <trkpt lat="42.84936" lon="-0.16025">
        <ele>1619.95874</ele>
        <time>2012-01-01T12:04:24Z</time>
      </trkpt>
      <trkpt lat="42.84947" lon="-0.16043">
        <ele>1620.439453</ele>
        <time>2012-01-01T12:04:42Z</time>
      </trkpt>
      <trkpt lat="42.84949" lon="-0.16044">
        <ele>1620.439453</ele>
        <time>2012-01-01T12:04:44Z</time>
      </trkpt>
      <trkpt lat="42.84958" lon="-0.16045">
        <ele>1617.074951</ele>
        <time>2012-01-01T12:04:52Z</time>
      </trkpt>
      <trkpt lat="42.84967" lon="-0.16046">
        <ele>1619.478271</ele>
        <time>2012-01-01T12:05:01Z</time>
      </trkpt>
      <trkpt lat="42.84972" lon="-0.1605">
        <ele>1616.113525</ele>
        <time>2012-01-01T12:05:08Z</time>
      </trkpt>
      <trkpt lat="42.84972" lon="-0.1605">
        <ele>1616.113525</ele>
        <time>2012-01-01T12:05:09Z</time>
      </trkpt>
      <trkpt lat="42.8499" lon="-0.16049">
        <ele>1613.229736</ele>
        <time>2012-01-01T12:05:24Z</time>
      </trkpt>
      <trkpt lat="42.85019" lon="-0.16038">
        <ele>1611.306885</ele>
        <time>2012-01-01T12:05:46Z</time>
      </trkpt>
      <trkpt lat="42.85043" lon="-0.16024">
        <ele>1611.306885</ele>
        <time>2012-01-01T12:06:07Z</time>
      </trkpt>
      <trkpt lat="42.85062" lon="-0.16012">
        <ele>1611.306885</ele>
        <time>2012-01-01T12:06:26Z</time>
      </trkpt>
      <trkpt lat="42.85065" lon="-0.16002">
        <ele>1610.826172</ele>
        <time>2012-01-01T12:06:32Z</time>
      </trkpt>
      <trkpt lat="42.85075" lon="-0.15986">
        <ele>1611.787598</ele>
        <time>2012-01-01T12:06:44Z</time>
      </trkpt>
      <trkpt lat="42.85077" lon="-0.15981">
        <ele>1612.268311</ele>
        <time>2012-01-01T12:06:47Z</time>
      </trkpt>
      <trkpt lat="42.85097" lon="-0.15971">
        <ele>1613.710205</ele>
        <time>2012-01-01T12:07:02Z</time>
      </trkpt>
      <trkpt lat="42.85113" lon="-0.15951">
        <ele>1613.710205</ele>
        <time>2012-01-01T12:07:20Z</time>
      </trkpt>
      <trkpt lat="42.85116" lon="-0.15947">
        <ele>1613.710205</ele>
        <time>2012-01-01T12:07:24Z</time>
      </trkpt>
      <trkpt lat="42.85119" lon="-0.15924">
        <ele>1609.864746</ele>
        <time>2012-01-01T12:07:39Z</time>
      </trkpt>
      <trkpt lat="42.8512" lon="-0.15903">
        <ele>1609.384277</ele>
        <time>2012-01-01T12:07:52Z</time>
      </trkpt>
      <trkpt lat="42.85108" lon="-0.1588">
        <ele>1606.980957</ele>
        <time>2012-01-01T12:08:08Z</time>
      </trkpt>
      <trkpt lat="42.85088" lon="-0.15896">
        <ele>1603.616455</ele>
        <time>2012-01-01T12:08:25Z</time>
      </trkpt>
      <trkpt lat="42.85081" lon="-0.15899">
        <ele>1602.655029</ele>
        <time>2012-01-01T12:08:30Z</time>
      </trkpt>
      <trkpt lat="42.85079" lon="-0.15894">
        <ele>1601.693848</ele>
        <time>2012-01-01T12:08:34Z</time>
      </trkpt>
      <trkpt lat="42.85079" lon="-0.15891">
        <ele>1601.213135</ele>
        <time>2012-01-01T12:08:36Z</time>
      </trkpt>
      <trkpt lat="42.85089" lon="-0.15871">
        <ele>1598.329102</ele>
        <time>2012-01-01T12:08:52Z</time>
      </trkpt>
      <trkpt lat="42.85094" lon="-0.1587">
        <ele>1597.36792</ele>
        <time>2012-01-01T12:08:58Z</time>
      </trkpt>
      <trkpt lat="42.85106" lon="-0.15864">
        <ele>1595.925781</ele>
        <time>2012-01-01T12:09:14Z</time>
      </trkpt>
      <trkpt lat="42.85108" lon="-0.15854">
        <ele>1593.041748</ele>
        <time>2012-01-01T12:09:28Z</time>
      </trkpt>
      <trkpt lat="42.85104" lon="-0.15839">
        <ele>1590.638428</ele>
        <time>2012-01-01T12:09:41Z</time>
      </trkpt>
      <trkpt lat="42.85102" lon="-0.15834">
        <ele>1590.638428</ele>
        <time>2012-01-01T12:09:53Z</time>
      </trkpt>
      <trkpt lat="42.85094" lon="-0.15802">
        <ele>1588.235352</ele>
        <time>2012-01-01T12:10:13Z</time>
      </trkpt>
      <trkpt lat="42.85098" lon="-0.15776">
        <ele>1586.793213</ele>
        <time>2012-01-01T12:10:32Z</time>
      </trkpt>
      <trkpt lat="42.85107" lon="-0.15754">
        <ele>1585.351318</ele>
        <time>2012-01-01T12:10:49Z</time>
      </trkpt>
      <trkpt lat="42.85115" lon="-0.15731">
        <ele>1581.986816</ele>
        <time>2012-01-01T12:11:09Z</time>
      </trkpt>
      <trkpt lat="42.85114" lon="-0.15724">
        <ele>1581.506104</ele>
        <time>2012-01-01T12:11:14Z</time>
      </trkpt>
      <trkpt lat="42.85111" lon="-0.15716">
        <ele>1581.025635</ele>
        <time>2012-01-01T12:11:22Z</time>
      </trkpt>
      <trkpt lat="42.85113" lon="-0.15685">
        <ele>1579.583252</ele>
        <time>2012-01-01T12:11:44Z</time>
      </trkpt>
      <trkpt lat="42.85113" lon="-0.15657">
        <ele>1578.141357</ele>
        <time>2012-01-01T12:12:03Z</time>
      </trkpt>
      <trkpt lat="42.85111" lon="-0.15624">
        <ele>1578.141357</ele>
        <time>2012-01-01T12:12:23Z</time>
      </trkpt>
      <trkpt lat="42.85101" lon="-0.15591">
        <ele>1576.21875</ele>
        <time>2012-01-01T12:12:43Z</time>
      </trkpt>
      <trkpt lat="42.85091" lon="-0.1556">
        <ele>1575.257324</ele>
        <time>2012-01-01T12:13:02Z</time>
      </trkpt>
      <trkpt lat="42.85092" lon="-0.15536">
        <ele>1574.776855</ele>
        <time>2012-01-01T12:13:20Z</time>
      </trkpt>
      <trkpt lat="42.8511" lon="-0.15517">
        <ele>1573.334961</ele>
        <time>2012-01-01T12:13:40Z</time>
      </trkpt>
      <trkpt lat="42.85118" lon="-0.15507">
        <ele>1573.334961</ele>
        <time>2012-01-01T12:13:49Z</time>
      </trkpt>
      <trkpt lat="42.85126" lon="-0.15494">
        <ele>1573.334961</ele>
        <time>2012-01-01T12:14:00Z</time>
      </trkpt>
      <trkpt lat="42.85125" lon="-0.15468">
        <ele>1572.373535</ele>
        <time>2012-01-01T12:14:15Z</time>
      </trkpt>
      <trkpt lat="42.85119" lon="-0.15445">
        <ele>1572.373535</ele>
        <time>2012-01-01T12:14:31Z</time>
      </trkpt>
      <trkpt lat="42.85121" lon="-0.15415">
        <ele>1571.412109</ele>
        <time>2012-01-01T12:14:50Z</time>
      </trkpt>
      <trkpt lat="42.85122" lon="-0.15413">
        <ele>1571.892822</ele>
        <time>2012-01-01T12:14:52Z</time>
      </trkpt>
      <trkpt lat="42.85132" lon="-0.15402">
        <ele>1572.854248</ele>
        <time>2012-01-01T12:15:02Z</time>
      </trkpt>
      <trkpt lat="42.85133" lon="-0.15401">
        <ele>1573.334961</ele>
        <time>2012-01-01T12:15:03Z</time>
      </trkpt>
      <trkpt lat="42.85137" lon="-0.15397">
        <ele>1573.81543</ele>
        <time>2012-01-01T12:15:08Z</time>
      </trkpt>
      <trkpt lat="42.85142" lon="-0.15394">
        <ele>1574.296143</ele>
        <time>2012-01-01T12:15:13Z</time>
      </trkpt>
      <trkpt lat="42.85145" lon="-0.15391">
        <ele>1574.776855</ele>
        <time>2012-01-01T12:15:16Z</time>
      </trkpt>
      <trkpt lat="42.85149" lon="-0.15387">
        <ele>1575.257324</ele>
        <time>2012-01-01T12:15:20Z</time>
      </trkpt>
      <trkpt lat="42.85155" lon="-0.15378">
        <ele>1575.738037</ele>
        <time>2012-01-01T12:15:29Z</time>
      </trkpt>
      <trkpt lat="42.85164" lon="-0.15364">
        <ele>1577.180176</ele>
        <time>2012-01-01T12:15:41Z</time>
      </trkpt>
      <trkpt lat="42.85165" lon="-0.15358">
        <ele>1577.180176</ele>
        <time>2012-01-01T12:15:45Z</time>
      </trkpt>
      <trkpt lat="42.85166" lon="-0.15355">
        <ele>1578.62207</ele>
        <time>2012-01-01T12:15:48Z</time>
      </trkpt>
      <trkpt lat="42.85168" lon="-0.15353">
        <ele>1579.583252</ele>
        <time>2012-01-01T12:15:50Z</time>
      </trkpt>
      <trkpt lat="42.85168" lon="-0.1535">
        <ele>1580.064209</ele>
        <time>2012-01-01T12:15:52Z</time>
      </trkpt>
      <trkpt lat="42.85175" lon="-0.15336">
        <ele>1580.064209</ele>
        <time>2012-01-01T12:16:03Z</time>
      </trkpt>
      <trkpt lat="42.8519" lon="-0.15327">
        <ele>1579.583252</ele>
        <time>2012-01-01T12:16:19Z</time>
      </trkpt>
      <trkpt lat="42.85209" lon="-0.15318">
        <ele>1578.141357</ele>
        <time>2012-01-01T12:16:36Z</time>
      </trkpt>
      <trkpt lat="42.85209" lon="-0.15311">
        <ele>1576.699463</ele>
        <time>2012-01-01T12:16:48Z</time>
      </trkpt>
      <trkpt lat="42.85223" lon="-0.15283">
        <ele>1574.776855</ele>
        <time>2012-01-01T12:17:10Z</time>
      </trkpt>
      <trkpt lat="42.85217" lon="-0.1525">
        <ele>1572.373535</ele>
        <time>2012-01-01T12:17:27Z</time>
      </trkpt>
      <trkpt lat="42.85196" lon="-0.15236">
        <ele>1570.931641</ele>
        <time>2012-01-01T12:17:46Z</time>
      </trkpt>
      <trkpt lat="42.85182" lon="-0.15213">
        <ele>1571.412109</ele>
        <time>2012-01-01T12:18:04Z</time>
      </trkpt>
      <trkpt lat="42.85179" lon="-0.15178">
        <ele>1569.970215</ele>
        <time>2012-01-01T12:18:24Z</time>
      </trkpt>
      <trkpt lat="42.85185" lon="-0.15151">
        <ele>1568.52832</ele>
        <time>2012-01-01T12:18:44Z</time>
      </trkpt>
      <trkpt lat="42.85197" lon="-0.15127">
        <ele>1567.566895</ele>
        <time>2012-01-01T12:19:02Z</time>
      </trkpt>
      <trkpt lat="42.85199" lon="-0.15121">
        <ele>1567.566895</ele>
        <time>2012-01-01T12:19:06Z</time>
      </trkpt>
      <trkpt lat="42.85202" lon="-0.15112">
        <ele>1567.566895</ele>
        <time>2012-01-01T12:19:12Z</time>
      </trkpt>
      <trkpt lat="42.85213" lon="-0.15103">
        <ele>1564.202393</ele>
        <time>2012-01-01T12:19:25Z</time>
      </trkpt>
      <trkpt lat="42.85234" lon="-0.15091">
        <ele>1560.837646</ele>
        <time>2012-01-01T12:19:43Z</time>
      </trkpt>
      <trkpt lat="42.85228" lon="-0.15071">
        <ele>1560.837646</ele>
        <time>2012-01-01T12:19:55Z</time>
      </trkpt>
      <trkpt lat="42.85218" lon="-0.1505">
        <ele>1559.876221</ele>
        <time>2012-01-01T12:20:11Z</time>
      </trkpt>
      <trkpt lat="42.8521" lon="-0.15025">
        <ele>1556.511719</ele>
        <time>2012-01-01T12:20:25Z</time>
      </trkpt>
      <trkpt lat="42.85203" lon="-0.15003">
        <ele>1554.108643</ele>
        <time>2012-01-01T12:20:41Z</time>
      </trkpt>
      <trkpt lat="42.85194" lon="-0.14978">
        <ele>1550.743896</ele>
        <time>2012-01-01T12:21:00Z</time>
      </trkpt>
      <trkpt lat="42.85182" lon="-0.14966">
        <ele>1547.37915</ele>
        <time>2012-01-01T12:21:16Z</time>
      </trkpt>
      <trkpt lat="42.85178" lon="-0.14963">
        <ele>1545.937256</ele>
        <time>2012-01-01T12:21:20Z</time>
      </trkpt>
      <trkpt lat="42.85173" lon="-0.14957">
        <ele>1545.456543</ele>
        <time>2012-01-01T12:21:27Z</time>
      </trkpt>
      <trkpt lat="42.85169" lon="-0.14938">
        <ele>1544.97583</ele>
        <time>2012-01-01T12:21:45Z</time>
      </trkpt>
      <trkpt lat="42.85159" lon="-0.14921">
        <ele>1543.533936</ele>
        <time>2012-01-01T12:22:03Z</time>
      </trkpt>
      <trkpt lat="42.85146" lon="-0.14911">
        <ele>1540.169434</ele>
        <time>2012-01-01T12:22:18Z</time>
      </trkpt>
      <trkpt lat="42.85128" lon="-0.14895">
        <ele>1537.766113</ele>
        <time>2012-01-01T12:22:39Z</time>
      </trkpt>
      <trkpt lat="42.85107" lon="-0.14873">
        <ele>1535.362793</ele>
        <time>2012-01-01T12:23:02Z</time>
      </trkpt>
      <trkpt lat="42.85094" lon="-0.1485">
        <ele>1535.843506</ele>
        <time>2012-01-01T12:23:20Z</time>
      </trkpt>
      <trkpt lat="42.85098" lon="-0.14824">
        <ele>1535.843506</ele>
        <time>2012-01-01T12:23:37Z</time>
      </trkpt>
      <trkpt lat="42.85104" lon="-0.14807">
        <ele>1535.843506</ele>
        <time>2012-01-01T12:23:49Z</time>
      </trkpt>
      <trkpt lat="42.85115" lon="-0.14777">
        <ele>1534.401611</ele>
        <time>2012-01-01T12:24:10Z</time>
      </trkpt>
      <trkpt lat="42.85125" lon="-0.1475">
        <ele>1533.440186</ele>
        <time>2012-01-01T12:24:29Z</time>
      </trkpt>
      <trkpt lat="42.85136" lon="-0.14721">
        <ele>1532.479004</ele>
        <time>2012-01-01T12:24:49Z</time>
      </trkpt>
      <trkpt lat="42.85147" lon="-0.14697">
        <ele>1531.998047</ele>
        <time>2012-01-01T12:25:07Z</time>
      </trkpt>
      <trkpt lat="42.85157" lon="-0.14672">
        <ele>1531.036865</ele>
        <time>2012-01-01T12:25:26Z</time>
      </trkpt>
      <trkpt lat="42.85167" lon="-0.14644">
        <ele>1531.036865</ele>
        <time>2012-01-01T12:25:45Z</time>
      </trkpt>
      <trkpt lat="42.85176" lon="-0.14626">
        <ele>1530.075439</ele>
        <time>2012-01-01T12:25:58Z</time>
      </trkpt>
      <trkpt lat="42.85179" lon="-0.1462">
        <ele>1530.556152</ele>
        <time>2012-01-01T12:26:02Z</time>
      </trkpt>
      <trkpt lat="42.85193" lon="-0.14596">
        <ele>1530.075439</ele>
        <time>2012-01-01T12:26:21Z</time>
      </trkpt>
      <trkpt lat="42.85204" lon="-0.14573">
        <ele>1529.114014</ele>
        <time>2012-01-01T12:26:37Z</time>
      </trkpt>
      <trkpt lat="42.85215" lon="-0.14545">
        <ele>1529.114014</ele>
        <time>2012-01-01T12:26:56Z</time>
      </trkpt>
      <trkpt lat="42.85226" lon="-0.14508">
        <ele>1529.114014</ele>
        <time>2012-01-01T12:27:20Z</time>
      </trkpt>
      <trkpt lat="42.85229" lon="-0.14491">
        <ele>1530.556152</ele>
        <time>2012-01-01T12:27:32Z</time>
      </trkpt>
      <trkpt lat="42.85235" lon="-0.14468">
        <ele>1531.036865</ele>
        <time>2012-01-01T12:27:47Z</time>
      </trkpt>
      <trkpt lat="42.85242" lon="-0.14445">
        <ele>1531.036865</ele>
        <time>2012-01-01T12:28:03Z</time>
      </trkpt>
      <trkpt lat="42.8525" lon="-0.14417">
        <ele>1531.036865</ele>
        <time>2012-01-01T12:28:22Z</time>
      </trkpt>
      <trkpt lat="42.8526" lon="-0.14391">
        <ele>1532.479004</ele>
        <time>2012-01-01T12:28:41Z</time>
      </trkpt>
      <trkpt lat="42.85265" lon="-0.14378">
        <ele>1531.998047</ele>
        <time>2012-01-01T12:28:50Z</time>
      </trkpt>
      <trkpt lat="42.85266" lon="-0.14347">
        <ele>1532.479004</ele>
        <time>2012-01-01T12:29:09Z</time>
      </trkpt>
      <trkpt lat="42.85265" lon="-0.14319">
        <ele>1531.998047</ele>
        <time>2012-01-01T12:29:27Z</time>
      </trkpt>
      <trkpt lat="42.85263" lon="-0.1429">
        <ele>1531.036865</ele>
        <time>2012-01-01T12:29:44Z</time>
      </trkpt>
      <trkpt lat="42.85256" lon="-0.14262">
        <ele>1530.075439</ele>
        <time>2012-01-01T12:30:01Z</time>
      </trkpt>
      <trkpt lat="42.85249" lon="-0.14256">
        <ele>1529.594727</ele>
        <time>2012-01-01T12:30:07Z</time>
      </trkpt>
      <trkpt lat="42.85241" lon="-0.14252">
        <ele>1529.114014</ele>
        <time>2012-01-01T12:30:13Z</time>
      </trkpt>
      <trkpt lat="42.85239" lon="-0.14249">
        <ele>1529.114014</ele>
        <time>2012-01-01T12:30:15Z</time>
      </trkpt>
      <trkpt lat="42.85226" lon="-0.14235">
        <ele>1529.594727</ele>
        <time>2012-01-01T12:30:26Z</time>
      </trkpt>
      <trkpt lat="42.85218" lon="-0.14232">
        <ele>1529.594727</ele>
        <time>2012-01-01T12:30:31Z</time>
      </trkpt>
      <trkpt lat="42.85207" lon="-0.14212">
        <ele>1529.594727</ele>
        <time>2012-01-01T12:30:46Z</time>
      </trkpt>
      <trkpt lat="42.85207" lon="-0.1421">
        <ele>1529.594727</ele>
        <time>2012-01-01T12:30:47Z</time>
      </trkpt>
      <trkpt lat="42.85203" lon="-0.14207">
        <ele>1529.594727</ele>
        <time>2012-01-01T12:30:51Z</time>
      </trkpt>
      <trkpt lat="42.85191" lon="-0.14189">
        <ele>1528.633545</ele>
        <time>2012-01-01T12:31:08Z</time>
      </trkpt>
      <trkpt lat="42.85188" lon="-0.14181">
        <ele>1528.152832</ele>
        <time>2012-01-01T12:31:12Z</time>
      </trkpt>
      <trkpt lat="42.85181" lon="-0.14158">
        <ele>1526.710938</ele>
        <time>2012-01-01T12:31:30Z</time>
      </trkpt>
      <trkpt lat="42.85178" lon="-0.14148">
        <ele>1525.749512</ele>
        <time>2012-01-01T12:31:38Z</time>
      </trkpt>
      <trkpt lat="42.85174" lon="-0.14122">
        <ele>1524.78833</ele>
        <time>2012-01-01T12:31:54Z</time>
      </trkpt>
      <trkpt lat="42.85175" lon="-0.14101">
        <ele>1522.865723</ele>
        <time>2012-01-01T12:32:07Z</time>
      </trkpt>
      <trkpt lat="42.85168" lon="-0.14078">
        <ele>1519.981689</ele>
        <time>2012-01-01T12:32:21Z</time>
      </trkpt>
      <trkpt lat="42.85158" lon="-0.1406">
        <ele>1518.059082</ele>
        <time>2012-01-01T12:32:36Z</time>
      </trkpt>
      <trkpt lat="42.8515" lon="-0.14048">
        <ele>1516.617188</ele>
        <time>2012-01-01T12:32:46Z</time>
      </trkpt>
      <trkpt lat="42.8514" lon="-0.14041">
        <ele>1515.655762</ele>
        <time>2012-01-01T12:32:57Z</time>
      </trkpt>
      <trkpt lat="42.85138" lon="-0.1404">
        <ele>1515.175049</ele>
        <time>2012-01-01T12:32:59Z</time>
      </trkpt>
      <trkpt lat="42.8513" lon="-0.14039">
        <ele>1513.252441</ele>
        <time>2012-01-01T12:33:13Z</time>
      </trkpt>
      <trkpt lat="42.85129" lon="-0.14039">
        <ele>1513.252441</ele>
        <time>2012-01-01T12:33:14Z</time>
      </trkpt>
      <trkpt lat="42.85136" lon="-0.14016">
        <ele>1510.368408</ele>
        <time>2012-01-01T12:33:32Z</time>
      </trkpt>
      <trkpt lat="42.85147" lon="-0.1399">
        <ele>1508.445801</ele>
        <time>2012-01-01T12:33:50Z</time>
      </trkpt>
      <trkpt lat="42.85147" lon="-0.13983">
        <ele>1508.445801</ele>
        <time>2012-01-01T12:33:54Z</time>
      </trkpt>
      <trkpt lat="42.85133" lon="-0.13971">
        <ele>1507.003906</ele>
        <time>2012-01-01T12:34:08Z</time>
      </trkpt>
      <trkpt lat="42.85112" lon="-0.13983">
        <ele>1507.003906</ele>
        <time>2012-01-01T12:34:27Z</time>
      </trkpt>
      <trkpt lat="42.85094" lon="-0.1398">
        <ele>1506.523193</ele>
        <time>2012-01-01T12:34:43Z</time>
      </trkpt>
      <trkpt lat="42.85088" lon="-0.13976">
        <ele>1505.562012</ele>
        <time>2012-01-01T12:34:49Z</time>
      </trkpt>
      <trkpt lat="42.85086" lon="-0.13967">
        <ele>1505.081299</ele>
        <time>2012-01-01T12:34:53Z</time>
      </trkpt>
      <trkpt lat="42.8509" lon="-0.13933">
        <ele>1503.639404</ele>
        <time>2012-01-01T12:35:14Z</time>
      </trkpt>
      <trkpt lat="42.85085" lon="-0.13913">
        <ele>1501.716797</ele>
        <time>2012-01-01T12:35:28Z</time>
      </trkpt>
      <trkpt lat="42.85077" lon="-0.139">
        <ele>1499.793945</ele>
        <time>2012-01-01T12:35:38Z</time>
      </trkpt>
      <trkpt lat="42.85077" lon="-0.13896">
        <ele>1499.793945</ele>
        <time>2012-01-01T12:35:40Z</time>
      </trkpt>
      <trkpt lat="42.8508" lon="-0.13864">
        <ele>1497.871338</ele>
        <time>2012-01-01T12:36:03Z</time>
      </trkpt>
      <trkpt lat="42.85076" lon="-0.13839">
        <ele>1495.468018</ele>
        <time>2012-01-01T12:36:21Z</time>
      </trkpt>
      <trkpt lat="42.85077" lon="-0.13819">
        <ele>1492.584229</ele>
        <time>2012-01-01T12:36:35Z</time>
      </trkpt>
      <trkpt lat="42.8508" lon="-0.1381">
        <ele>1491.622803</ele>
        <time>2012-01-01T12:36:40Z</time>
      </trkpt>
      <trkpt lat="42.85087" lon="-0.13807">
        <ele>1490.180908</ele>
        <time>2012-01-01T12:36:47Z</time>
      </trkpt>
      <trkpt lat="42.8509" lon="-0.13809">
        <ele>1490.180908</ele>
        <time>2012-01-01T12:36:50Z</time>
      </trkpt>
      <trkpt lat="42.85096" lon="-0.13815">
        <ele>1489.219482</ele>
        <time>2012-01-01T12:36:57Z</time>
      </trkpt>
      <trkpt lat="42.85104" lon="-0.13843">
        <ele>1486.335693</ele>
        <time>2012-01-01T12:37:14Z</time>
      </trkpt>
      <trkpt lat="42.85104" lon="-0.13844">
        <ele>1486.816162</ele>
        <time>2012-01-01T12:37:15Z</time>
      </trkpt>
      <trkpt lat="42.85124" lon="-0.1384">
        <ele>1484.413086</ele>
        <time>2012-01-01T12:37:33Z</time>
      </trkpt>
      <trkpt lat="42.8513" lon="-0.13809">
        <ele>1481.528809</ele>
        <time>2012-01-01T12:37:50Z</time>
      </trkpt>
      <trkpt lat="42.85133" lon="-0.13786">
        <ele>1480.567627</ele>
        <time>2012-01-01T12:38:04Z</time>
      </trkpt>
      <trkpt lat="42.85143" lon="-0.13764">
        <ele>1479.125488</ele>
        <time>2012-01-01T12:38:23Z</time>
      </trkpt>
      <trkpt lat="42.8515" lon="-0.13754">
        <ele>1476.241699</ele>
        <time>2012-01-01T12:38:34Z</time>
      </trkpt>
      <trkpt lat="42.85156" lon="-0.13734">
        <ele>1475.280273</ele>
        <time>2012-01-01T12:38:47Z</time>
      </trkpt>
      <trkpt lat="42.85166" lon="-0.13711">
        <ele>1474.799805</ele>
        <time>2012-01-01T12:39:06Z</time>
      </trkpt>
      <trkpt lat="42.8517" lon="-0.13722">
        <ele>1474.799805</ele>
        <time>2012-01-01T12:39:20Z</time>
      </trkpt>
      <trkpt lat="42.85168" lon="-0.13726">
        <ele>1474.319092</ele>
        <time>2012-01-01T12:39:34Z</time>
      </trkpt>
      <trkpt lat="42.85168" lon="-0.13725">
        <ele>1474.799805</ele>
        <time>2012-01-01T12:39:41Z</time>
      </trkpt>
      <trkpt lat="42.85168" lon="-0.13693">
        <ele>1473.838379</ele>
        <time>2012-01-01T12:40:00Z</time>
      </trkpt>
      <trkpt lat="42.85167" lon="-0.13687">
        <ele>1473.838379</ele>
        <time>2012-01-01T12:40:05Z</time>
      </trkpt>
      <trkpt lat="42.85174" lon="-0.13661">
        <ele>1473.838379</ele>
        <time>2012-01-01T12:40:21Z</time>
      </trkpt>
      <trkpt lat="42.85184" lon="-0.13624">
        <ele>1472.396484</ele>
        <time>2012-01-01T12:40:46Z</time>
      </trkpt>
      <trkpt lat="42.85182" lon="-0.13618">
        <ele>1471.915771</ele>
        <time>2012-01-01T12:41:05Z</time>
      </trkpt>
      <trkpt lat="42.85188" lon="-0.13621">
        <ele>1471.435059</ele>
        <time>2012-01-01T12:41:23Z</time>
      </trkpt>
      <trkpt lat="42.85188" lon="-0.13623">
        <ele>1471.435059</ele>
        <time>2012-01-01T12:41:44Z</time>
      </trkpt>
    </trkseg>
  </trk>
</gpx>